Grand Meadow, MN (55936)

8:13 AM CDT on March 28, 2015 (GMT -0500)
Steve's Weather Station | | Change Station
CLOSE
Current Station
Personal Weather Station
Location: Grand Meadow, MN
Elevation: 1296 ft
Nearby Weather Stations

Elev 1296 ft 43.83 °N, 92.61 °W | Updated 2 minutes ago

Partly Cloudy
Partly Cloudy
17.7 °F
Feels Like 18 °F
N
0.0
Wind Variable Wind from NNE
Gusts 1.3 mph

Today
High -- | Low -- °F
--% Chance of Precip.
Yesterday
High -- | Low -- °F
Precip. -- in
6:59 AM 7:32 PM
Waxing Gibbous, 62% visible
Pressure 30.31 in
Visibility 10.0 miles
Clouds Clear
Windchill 18 °F
Dew Point 9 °F
Humidity 68%
Rainfall 0.00 in
Snow Depth Not available.
UV 0 out of 12
Pollen 3.50 out of 12
Air Quality Not available.
Flu Activity Not available.
METAR KRST 281254Z 16005KT 10SM CLR M09/M13 A3024 RMK AO2 SLP263 T10941128

More Conditions Fewer Conditions

Pressure 30.31 in
Visibility 10.0 miles
Clouds Clear
Windchill 18 °F
Dew Point 9 °F
Humidity 68%
Rainfall 0.00 in
Snow Depth Not available.
UV 0 out of 12
Pollen 3.50 out of 12
Air Quality Not available.
Flu Activity Not available.
METAR KRST 281254Z 16005KT 10SM CLR M09/M13 A3024 RMK AO2 SLP263 T10941128

More Conditions Fewer Conditions

10-Day Weather Forecast

Almanac

Astronomy

Mar. 28, 2015 Rise Set
Actual Time
Civil Twilight
Nautical Twilight
Astronomical Twilight
Moon
Length of Visible Light
Length of Day
Tomorrow will be .
, % of the Moon is Illuminated

Today's Extremes

State Highs State Lows

Community

WunderPhotos

Upload Photos

1,808,968 photos uploaded!

WunderBlogs® & News

Nearby

Air Quality

  Air Quality AQ Index Pollutant
Not available.

Snow Depth

Station Depth Elevation

Earthquake Activity

City Distance Mag. Time & Date
Minimum magnitude displayed is 2.5.

Coastal Water Temperatures

Place Temperature

Stations

Nearby Weather Stations

Station Location Temp. Windchill Dew Point Humidity Wind Precip. Elev Updated Type